createdAt,value
2019-02-21T00:01:44.788Z,43.20
2019-02-21T00:04:14.183Z,40.97
2019-02-21T00:06:43.412Z,40.27
2019-02-21T00:09:13.047Z,41.30
2019-02-21T00:11:42.649Z,42.00
2019-02-21T00:14:12.183Z,44.03
2019-02-21T00:16:41.478Z,43.80
2019-02-21T00:19:11.112Z,46.13
2019-02-21T00:21:40.397Z,42.80
2019-02-21T00:24:09.792Z,43.40
2019-02-21T00:26:39.148Z,44.57
2019-02-21T00:29:08.499Z,45.70
2019-02-21T00:31:40.007Z,43.87
2019-02-21T00:34:09.056Z,45.27
2019-02-21T00:36:38.421Z,43.67
2019-02-21T00:39:08.093Z,45.67
2019-02-21T00:41:37.552Z,44.57
2019-02-21T00:44:06.801Z,46.47
2019-02-21T00:46:36.095Z,47.00
2019-02-21T00:49:05.361Z,46.13
2019-02-21T00:51:34.667Z,44.50
2019-02-21T00:54:03.966Z,45.87
2019-02-21T00:56:33.464Z,49.00
2019-02-21T00:59:02.767Z,45.93
2019-02-21T01:01:32.024Z,47.50
2019-02-21T01:04:01.394Z,47.23
2019-02-21T01:06:30.698Z,47.93
2019-02-21T01:09:00.060Z,46.80
2019-02-21T01:11:29.571Z,45.43
2019-02-21T01:13:58.932Z,46.60
2019-02-21T01:16:28.315Z,45.27
2019-02-21T01:18:57.804Z,47.70
2019-02-21T01:21:27.283Z,48.33
2019-02-21T01:23:56.655Z,47.00
2019-02-21T01:26:25.927Z,46.43
2019-02-21T01:28:55.404Z,46.00
2019-02-21T01:31:24.788Z,44.70
2019-02-21T01:33:55.080Z,45.60
2019-02-21T01:36:24.476Z,44.67
2019-02-21T01:38:53.884Z,47.57
2019-02-21T01:41:23.167Z,46.57
2019-02-21T01:43:52.551Z,48.87
2019-02-21T01:46:21.854Z,46.30
2019-02-21T01:48:51.246Z,47.33
2019-02-21T01:51:20.819Z,46.23
2019-02-21T01:53:50.236Z,48.47
2019-02-21T01:56:19.584Z,47.33
2019-02-21T01:58:49.150Z,46.37
2019-02-21T02:01:18.584Z,45.63
2019-02-21T02:03:48.142Z,47.83
2019-02-21T02:06:17.523Z,46.90
2019-02-21T02:08:46.850Z,49.53
2019-02-21T02:11:16.320Z,49.00
2019-02-21T02:13:45.663Z,46.23
2019-02-21T02:16:15.000Z,47.10
2019-02-21T02:18:44.310Z,46.20
2019-02-21T02:21:13.961Z,47.33
2019-02-21T02:23:43.380Z,44.70
2019-02-21T02:26:12.676Z,44.67
2019-02-21T02:28:42.096Z,44.27
2019-02-21T02:31:22.072Z,44.40
2019-02-21T02:33:42.490Z,44.57
2019-02-21T02:36:11.972Z,46.70
2019-02-21T02:38:41.281Z,44.07
2019-02-21T02:41:10.834Z,46.40
2019-02-21T02:43:40.135Z,45.93
2019-02-21T02:46:09.529Z,45.43
2019-02-21T02:48:38.952Z,43.53
2019-02-21T02:51:08.349Z,47.63
2019-02-21T02:53:37.689Z,47.70
2019-02-21T02:56:07.048Z,46.10
2019-02-21T02:58:36.416Z,46.07
2019-02-21T03:01:05.729Z,47.80
2019-02-21T03:03:35.223Z,48.33
2019-02-21T03:06:04.750Z,44.00
2019-02-21T03:08:34.255Z,44.77
2019-02-21T03:11:03.608Z,44.40
2019-02-21T03:13:32.933Z,43.80
2019-02-21T03:16:02.476Z,43.03
2019-02-21T03:18:32.146Z,50.90
2019-02-21T03:21:01.481Z,54.20
2019-02-21T03:23:30.802Z,55.60
2019-02-21T03:26:00.235Z,52.23
2019-02-21T03:28:29.699Z,56.80
2019-02-21T03:30:59.053Z,57.43
2019-02-21T03:33:28.453Z,55.83
2019-02-21T03:35:57.918Z,52.53
2019-02-21T03:38:27.135Z,50.53
2019-02-21T03:40:56.717Z,51.53
2019-02-21T03:43:26.084Z,49.07
2019-02-21T03:45:55.392Z,49.00
2019-02-21T03:48:24.692Z,46.97
2019-02-21T03:50:54.020Z,46.23
2019-02-21T03:53:24.148Z,41.43
2019-02-21T03:55:53.876Z,44.57
2019-02-21T03:58:23.443Z,43.30
2019-02-21T04:00:52.905Z,42.20
2019-02-21T04:03:22.167Z,41.20
2019-02-21T04:05:51.956Z,42.13
2019-02-21T04:08:21.351Z,41.10
2019-02-21T04:10:51.026Z,43.60
2019-02-21T04:13:20.629Z,41.33
2019-02-21T04:15:49.961Z,44.00
2019-02-21T04:18:19.221Z,43.00
2019-02-21T04:20:48.526Z,42.93
2019-02-21T04:23:17.927Z,41.27
2019-02-21T04:25:47.332Z,40.70
2019-02-21T04:28:16.707Z,41.57
2019-02-21T04:30:46.073Z,43.37
2019-02-21T04:33:15.698Z,42.50
2019-02-21T04:35:45.084Z,39.87
2019-02-21T04:38:14.607Z,41.30
2019-02-21T04:40:43.845Z,41.17
2019-02-21T04:43:13.133Z,39.70
2019-02-21T04:45:42.584Z,40.43
2019-02-21T04:48:11.910Z,42.40
2019-02-21T04:50:41.304Z,43.53
2019-02-21T04:53:10.639Z,42.47
2019-02-21T04:55:40.083Z,40.70
2019-02-21T04:58:09.398Z,39.93
2019-02-21T05:00:38.694Z,42.20
2019-02-21T05:03:08.036Z,41.40
2019-02-21T05:05:37.400Z,39.30
2019-02-21T05:08:07.172Z,42.37
2019-02-21T05:10:36.477Z,40.63
2019-02-21T05:13:05.935Z,40.90
2019-02-21T05:15:35.281Z,40.07
2019-02-21T05:18:04.673Z,37.97
2019-02-21T05:20:34.310Z,37.33
2019-02-21T05:23:03.727Z,37.50
2019-02-21T05:25:33.337Z,35.13
2019-02-21T05:28:20.582Z,36.80
2019-02-21T05:30:51.733Z,36.27
2019-02-21T05:33:38.976Z,35.43
2019-02-21T05:36:10.548Z,36.53
2019-02-21T05:38:47.406Z,36.43
2019-02-21T05:41:38.566Z,37.53
2019-02-21T05:44:23.262Z,35.57
2019-02-21T05:47:20.964Z,36.80
2019-02-21T05:50:08.614Z,36.37
2019-02-21T05:52:59.726Z,36.03
2019-02-21T05:55:34.969Z,34.37
2019-02-21T05:58:25.985Z,35.93
2019-02-21T06:01:14.348Z,35.43
2019-02-21T06:03:48.653Z,37.27
2019-02-21T06:06:42.633Z,35.93
2019-02-21T06:09:36.937Z,35.70
2019-02-21T06:12:32.892Z,35.10
2019-02-21T06:15:10.363Z,36.13
2019-02-21T06:17:47.703Z,36.10
2019-02-21T06:20:45.351Z,34.50
2019-02-21T06:23:29.444Z,34.60
2019-02-21T06:26:27.204Z,34.97
2019-02-21T06:29:16.592Z,35.87
2019-02-21T06:31:46.525Z,32.90
2019-02-21T06:34:16.008Z,34.90
2019-02-21T06:36:45.641Z,34.20
2019-02-21T06:39:15.199Z,31.87
2019-02-21T06:41:44.711Z,32.80
2019-02-21T06:44:14.174Z,34.83
2019-02-21T06:46:43.788Z,32.77
2019-02-21T06:49:13.359Z,31.40
2019-02-21T06:51:42.818Z,32.00
2019-02-21T06:54:12.375Z,31.27
2019-02-21T06:56:41.893Z,32.07
2019-02-21T06:59:14.098Z,31.73
2019-02-21T07:01:43.720Z,29.97
2019-02-21T07:04:13.215Z,30.87
2019-02-21T07:06:45.955Z,30.00
2019-02-21T07:09:15.591Z,29.57
2019-02-21T07:11:46.089Z,30.53
2019-02-21T07:14:18.291Z,29.17
2019-02-21T07:16:47.923Z,29.87
2019-02-21T07:19:19.860Z,30.50
2019-02-21T07:21:49.143Z,29.00
2019-02-21T07:24:18.437Z,29.37
2019-02-21T07:26:48.072Z,30.53
2019-02-21T07:29:17.348Z,30.47
2019-02-21T07:31:49.177Z,28.93
2019-02-21T07:34:17.512Z,30.70
2019-02-21T07:36:46.720Z,29.53
2019-02-21T07:39:19.775Z,31.00
2019-02-21T07:41:50.059Z,29.20
2019-02-21T07:44:19.438Z,27.73
2019-02-21T07:46:48.922Z,28.23
2019-02-21T07:49:18.190Z,28.30
2019-02-21T07:51:47.472Z,29.00
2019-02-21T07:54:16.654Z,27.50
2019-02-21T07:56:45.931Z,28.20
2019-02-21T07:59:15.238Z,24.90
2019-02-21T08:01:45.369Z,26.63
2019-02-21T08:04:14.838Z,26.00
2019-02-21T08:06:44.312Z,27.47
2019-02-21T08:09:13.571Z,27.60
2019-02-21T08:11:42.827Z,27.37
2019-02-21T08:14:12.152Z,26.90
2019-02-21T08:16:41.430Z,27.53
2019-02-21T08:19:10.625Z,27.43
2019-02-21T08:21:43.233Z,29.07
2019-02-21T08:24:10.828Z,28.00
2019-02-21T08:26:40.095Z,28.30
2019-02-21T08:29:09.399Z,27.37
2019-02-21T08:31:38.613Z,27.13
2019-02-21T08:34:12.120Z,27.30
2019-02-21T08:36:41.442Z,26.40
2019-02-21T08:39:11.206Z,27.87
2019-02-21T08:41:40.991Z,26.17
2019-02-21T08:44:12.498Z,27.63
2019-02-21T08:46:41.856Z,26.67
2019-02-21T08:49:11.348Z,26.57
2019-02-21T08:51:40.596Z,27.10
2019-02-21T08:54:11.455Z,27.00
2019-02-21T08:56:40.810Z,26.53
2019-02-21T08:59:10.094Z,25.03
2019-02-21T09:01:39.398Z,24.83
2019-02-21T09:04:18.204Z,25.03
2019-02-21T09:06:39.809Z,23.03
2019-02-21T09:09:09.332Z,23.30
2019-02-21T09:11:39.129Z,21.07
2019-02-21T09:14:08.380Z,21.40
2019-02-21T09:16:37.670Z,20.97
2019-02-21T09:19:06.926Z,20.37
2019-02-21T09:21:36.305Z,21.73
2019-02-21T09:24:05.583Z,19.87
2019-02-21T09:26:34.887Z,19.30
2019-02-21T09:29:07.223Z,20.17
2019-02-21T09:31:42.338Z,19.37
2019-02-21T09:34:20.776Z,18.87
2019-02-21T09:36:42.766Z,20.27
2019-02-21T09:39:12.079Z,19.43
2019-02-21T09:41:41.304Z,18.63
2019-02-21T09:44:10.532Z,20.20
2019-02-21T09:46:40.608Z,19.47
2019-02-21T09:49:10.204Z,19.93
2019-02-21T09:51:39.474Z,20.80
2019-02-21T09:54:08.935Z,19.73
2019-02-21T09:56:38.288Z,18.37
2019-02-21T09:59:07.566Z,19.80
2019-02-21T10:01:36.943Z,18.63
2019-02-21T10:04:06.385Z,19.67
2019-02-21T10:06:35.758Z,18.97
2019-02-21T10:09:06.132Z,18.97
2019-02-21T10:11:35.497Z,18.50
2019-02-21T10:14:04.769Z,19.50
2019-02-21T10:16:34.316Z,20.13
2019-02-21T10:19:03.701Z,19.93
2019-02-21T10:21:33.119Z,20.57
2019-02-21T10:24:03.098Z,18.50
2019-02-21T10:26:32.519Z,20.03
2019-02-21T10:29:02.628Z,19.80
2019-02-21T10:31:32.096Z,20.53
2019-02-21T10:34:01.765Z,20.40
2019-02-21T10:36:31.111Z,19.80
2019-02-21T10:39:00.539Z,19.63
2019-02-21T10:41:29.905Z,20.43
2019-02-21T10:43:59.305Z,19.97
2019-02-21T10:46:30.823Z,20.20
2019-02-21T10:48:59.860Z,18.80
2019-02-21T10:51:29.364Z,18.87
2019-02-21T10:53:58.881Z,19.43
2019-02-21T10:56:28.435Z,19.73
2019-02-21T10:58:57.881Z,18.50
2019-02-21T11:01:27.300Z,19.63
2019-02-21T11:03:56.751Z,20.33
2019-02-21T11:06:26.096Z,20.30
2019-02-21T11:08:55.617Z,19.70
2019-02-21T11:11:25.062Z,18.57
2019-02-21T11:13:58.255Z,18.83
2019-02-21T11:16:27.867Z,18.47
2019-02-21T11:18:57.539Z,19.37
2019-02-21T11:21:33.516Z,19.03
2019-02-21T11:24:06.272Z,19.23
2019-02-21T11:26:40.590Z,18.67
2019-02-21T11:29:10.068Z,19.20
2019-02-21T11:31:46.556Z,16.97
2019-02-21T11:34:16.396Z,18.07
2019-02-21T11:36:49.876Z,16.57
2019-02-21T11:39:19.375Z,16.27
2019-02-21T11:41:56.620Z,15.03
2019-02-21T11:44:31.520Z,14.20
2019-02-21T11:47:09.298Z,14.47
2019-02-21T11:49:40.999Z,14.67
2019-02-21T11:52:18.014Z,15.70
2019-02-21T11:54:45.025Z,16.27
2019-02-21T11:57:14.619Z,14.97
2019-02-21T11:59:44.195Z,14.93
2019-02-21T12:02:13.651Z,14.80
2019-02-21T12:04:43.126Z,14.50
2019-02-21T12:07:12.568Z,15.37
2019-02-21T12:09:41.857Z,17.43
2019-02-21T12:12:11.464Z,16.37
2019-02-21T12:14:40.879Z,16.93
2019-02-21T12:17:10.268Z,17.00
2019-02-21T12:19:39.756Z,15.90
2019-02-21T12:22:09.560Z,16.67
2019-02-21T12:24:39.115Z,16.90
2019-02-21T12:27:08.607Z,16.77
2019-02-21T12:29:38.303Z,16.47
2019-02-21T12:32:07.867Z,16.57
2019-02-21T12:34:37.571Z,17.10
2019-02-21T12:37:09.600Z,16.63
2019-02-21T12:39:41.255Z,17.20
2019-02-21T12:42:13.293Z,18.33
2019-02-21T12:44:42.852Z,17.87
2019-02-21T12:47:12.436Z,19.67
2019-02-21T12:49:42.037Z,18.73
2019-02-21T12:52:11.617Z,18.43
2019-02-21T12:54:41.635Z,18.63
2019-02-21T12:57:11.187Z,18.57
2019-02-21T12:59:40.742Z,18.93
2019-02-21T13:02:17.194Z,19.03
2019-02-21T13:04:46.876Z,19.00
2019-02-21T13:07:17.621Z,21.63
2019-02-21T13:09:47.186Z,20.63
2019-02-21T13:12:16.767Z,20.10
2019-02-21T13:14:47.644Z,19.20
2019-02-21T13:17:17.481Z,19.43
2019-02-21T13:19:49.127Z,18.77
2019-02-21T13:22:18.944Z,19.13
2019-02-21T13:24:48.601Z,17.73
2019-02-21T13:27:18.081Z,18.63
2019-02-21T13:29:47.598Z,17.93
2019-02-21T13:32:17.242Z,17.57
2019-02-21T13:34:46.681Z,17.03
2019-02-21T13:37:28.162Z,18.47
2019-02-21T13:39:55.288Z,19.37
2019-02-21T13:42:22.156Z,19.33
2019-02-21T13:44:52.885Z,19.30
2019-02-21T13:47:22.243Z,18.90
2019-02-21T13:49:51.829Z,19.90
2019-02-21T13:52:21.323Z,19.27
2019-02-21T13:54:50.905Z,18.67
2019-02-21T13:57:20.330Z,19.60
2019-02-21T13:59:49.842Z,19.53
2019-02-21T14:02:19.269Z,19.53
2019-02-21T14:04:48.632Z,20.33
2019-02-21T14:07:18.029Z,20.67
2019-02-21T14:09:47.486Z,20.50
2019-02-21T14:12:17.119Z,21.03
2019-02-21T14:14:46.923Z,20.37
2019-02-21T14:17:16.510Z,20.23
2019-02-21T14:19:45.960Z,22.63
2019-02-21T14:22:15.523Z,22.20
2019-02-21T14:24:45.018Z,23.67
2019-02-21T14:27:14.455Z,24.07
2019-02-21T14:29:43.908Z,24.77
2019-02-21T14:32:13.358Z,25.00
2019-02-21T14:34:42.950Z,24.30
2019-02-21T14:37:12.377Z,25.00
2019-02-21T14:39:41.834Z,25.77
2019-02-21T14:42:11.362Z,24.80
2019-02-21T14:44:40.793Z,25.77
2019-02-21T14:47:10.180Z,26.17
2019-02-21T14:49:39.565Z,26.43
2019-02-21T14:52:09.220Z,27.30
2019-02-21T14:54:38.788Z,26.90
2019-02-21T14:57:15.384Z,26.90
2019-02-21T14:59:45.138Z,26.67
2019-02-21T15:02:14.422Z,28.20
2019-02-21T15:04:43.818Z,28.00
2019-02-21T15:07:13.139Z,28.53
2019-02-21T15:09:45.669Z,29.93
2019-02-21T15:12:17.159Z,30.17
2019-02-21T15:14:48.947Z,28.80
2019-02-21T15:17:18.656Z,29.07
2019-02-21T15:19:47.997Z,29.40
2019-02-21T15:22:17.339Z,30.23
2019-02-21T15:24:46.590Z,31.53
2019-02-21T15:27:17.740Z,32.63
2019-02-21T15:29:47.524Z,30.47
2019-02-21T15:32:16.883Z,31.93
2019-02-21T15:34:49.263Z,33.13
2019-02-21T15:37:20.662Z,34.00
2019-02-21T15:39:52.396Z,33.07
2019-02-21T15:42:24.313Z,32.57
2019-02-21T15:44:53.646Z,34.67
2019-02-21T15:47:23.121Z,34.10
2019-02-21T15:49:52.495Z,32.50
2019-02-21T15:52:22.702Z,33.53
2019-02-21T15:54:52.361Z,32.30
2019-02-21T15:57:21.882Z,32.57
2019-02-21T15:59:51.279Z,32.60
2019-02-21T16:02:20.691Z,32.67
2019-02-21T16:04:50.228Z,32.93
2019-02-21T16:07:20.018Z,31.97
2019-02-21T16:10:10.871Z,31.27
2019-02-21T16:12:40.537Z,33.33
2019-02-21T16:15:11.123Z,31.87
2019-02-21T16:17:40.583Z,29.27
2019-02-21T16:20:11.388Z,30.90
2019-02-21T16:22:40.895Z,30.43
2019-02-21T16:25:12.425Z,30.00
2019-02-21T16:27:41.770Z,30.67
2019-02-21T16:30:12.804Z,30.73
2019-02-21T16:32:42.461Z,31.00
2019-02-21T16:35:12.365Z,32.23
2019-02-21T16:37:41.784Z,30.67
2019-02-21T16:40:12.496Z,31.40
2019-02-21T16:42:41.820Z,30.07
2019-02-21T16:45:12.379Z,29.37
2019-02-21T16:47:41.735Z,31.77
2019-02-21T16:50:12.163Z,31.77
2019-02-21T16:52:41.516Z,30.93
2019-02-21T16:55:13.341Z,29.97
2019-02-21T16:57:42.723Z,29.63
2019-02-21T17:00:13.583Z,29.17
2019-02-21T17:02:43.164Z,33.30
2019-02-21T17:05:12.896Z,32.33
2019-02-21T17:07:42.507Z,33.63
2019-02-21T17:10:12.433Z,33.37
2019-02-21T17:12:41.938Z,29.83
2019-02-21T17:15:12.057Z,29.67
2019-02-21T17:17:41.425Z,30.17
2019-02-21T17:20:12.735Z,32.17
2019-02-21T17:22:42.013Z,34.67
2019-02-21T17:25:12.416Z,36.43
2019-02-21T17:27:42.267Z,33.23
2019-02-21T17:30:13.823Z,32.10
2019-02-21T17:32:43.442Z,29.03
2019-02-21T17:35:13.266Z,28.07
2019-02-21T17:37:42.703Z,30.47
2019-02-21T17:40:15.622Z,32.33
2019-02-21T17:42:46.014Z,31.83
2019-02-21T17:45:15.549Z,32.07
2019-02-21T17:47:45.475Z,31.43
2019-02-21T17:50:34.045Z,30.43
2019-02-21T17:53:03.674Z,28.83
2019-02-21T17:55:52.251Z,27.33
2019-02-21T17:58:21.609Z,24.97
2019-02-21T18:00:51.045Z,23.37
2019-02-21T18:03:20.467Z,23.07
2019-02-21T18:05:49.847Z,22.93
2019-02-21T18:08:19.355Z,24.53
2019-02-21T18:10:48.775Z,23.90
2019-02-21T18:13:18.106Z,24.13
2019-02-21T18:15:48.130Z,24.03
2019-02-21T18:18:17.871Z,26.17
2019-02-21T18:20:47.181Z,26.80
2019-02-21T18:23:17.115Z,26.80
2019-02-21T18:25:50.608Z,29.23
2019-02-21T18:28:20.049Z,29.27
2019-02-21T18:30:49.535Z,28.40
2019-02-21T18:33:19.164Z,28.43
2019-02-21T18:35:48.477Z,27.53
2019-02-21T18:38:17.818Z,26.50
2019-02-21T18:40:47.722Z,26.60
2019-02-21T18:43:17.112Z,23.20
2019-02-21T18:45:46.581Z,23.53
2019-02-21T18:48:16.013Z,23.37
2019-02-21T18:50:45.645Z,22.07
2019-02-21T18:53:15.183Z,22.30
2019-02-21T18:55:44.586Z,22.10
2019-02-21T18:58:14.532Z,24.00
2019-02-21T19:00:44.404Z,25.07
2019-02-21T19:03:13.849Z,24.87
2019-02-21T19:08:41.627Z,25.47
2019-02-21T19:13:52.367Z,25.87
2019-02-21T19:16:21.896Z,27.53
2019-02-21T19:18:51.241Z,27.47
2019-02-21T19:21:20.535Z,28.27
2019-02-21T19:23:49.984Z,27.87
2019-02-21T19:26:19.555Z,29.57
2019-02-21T19:34:25.491Z,30.43
2019-02-21T19:37:03.389Z,30.17
2019-02-21T19:39:34.423Z,28.90
2019-02-21T19:42:04.005Z,29.23
2019-02-21T19:44:33.641Z,26.00
2019-02-21T19:47:27.070Z,26.37
2019-02-21T19:50:04.483Z,24.80
2019-02-21T19:52:29.745Z,25.73
2019-02-21T19:55:06.772Z,27.43
2019-02-21T19:57:41.462Z,24.33
2019-02-21T20:00:14.318Z,25.03
2019-02-21T20:02:43.911Z,26.50
2019-02-21T20:05:13.329Z,26.80
2019-02-21T20:07:42.812Z,28.67
2019-02-21T20:10:12.236Z,30.23
2019-02-21T20:12:41.925Z,29.43
2019-02-21T20:15:11.615Z,31.40
2019-02-21T20:17:41.487Z,32.67
2019-02-21T20:20:12.247Z,31.30
2019-02-21T20:22:41.602Z,32.70
2019-02-21T20:25:11.311Z,33.00
2019-02-21T20:27:40.813Z,31.47
2019-02-21T20:30:12.631Z,31.73
2019-02-21T20:32:41.950Z,32.47
2019-02-21T20:35:11.629Z,31.67
2019-02-21T20:37:40.959Z,33.80
2019-02-21T20:40:10.706Z,33.17
2019-02-21T20:42:40.076Z,33.40
2019-02-21T20:45:09.736Z,35.57
2019-02-21T20:47:39.651Z,34.87
2019-02-21T20:50:09.427Z,34.47
2019-02-21T20:52:38.884Z,36.33
2019-02-21T20:55:08.543Z,37.67
2019-02-21T20:57:38.035Z,36.27
2019-02-21T21:00:11.837Z,38.33
2019-02-21T21:02:44.628Z,35.70
2019-02-21T21:05:15.261Z,37.50
2019-02-21T21:07:44.784Z,38.53
2019-02-21T21:10:14.795Z,36.77
2019-02-21T21:12:44.214Z,37.13
2019-02-21T21:15:13.864Z,41.07
2019-02-21T21:17:43.302Z,38.97
2019-02-21T21:20:16.944Z,39.43
2019-02-21T21:22:44.500Z,38.07
2019-02-21T21:25:14.783Z,38.00
2019-02-21T21:27:44.262Z,39.23
2019-02-21T21:30:14.636Z,41.30
2019-02-21T21:32:44.344Z,38.87
2019-02-21T21:35:13.750Z,41.60
2019-02-21T21:37:43.295Z,38.17
2019-02-21T21:40:13.880Z,40.63
2019-02-21T21:42:43.173Z,41.67
2019-02-21T21:45:14.918Z,42.17
2019-02-21T21:47:44.428Z,41.27
2019-02-21T21:50:14.945Z,41.60
2019-02-21T21:52:44.399Z,40.83
2019-02-21T21:55:14.539Z,42.43
2019-02-21T21:57:44.131Z,41.63
2019-02-21T22:00:17.999Z,43.67
2019-02-21T22:02:47.597Z,43.33
2019-02-21T22:05:17.323Z,42.57
2019-02-21T22:07:49.176Z,43.70
2019-02-21T22:10:17.924Z,46.40
2019-02-21T22:12:47.308Z,44.70
2019-02-21T22:15:17.102Z,46.83
2019-02-21T22:17:46.563Z,46.93
2019-02-21T22:20:16.067Z,48.43
2019-02-21T22:22:45.572Z,47.90
2019-02-21T22:25:15.595Z,48.07
2019-02-21T22:27:45.210Z,51.60
2019-02-21T22:30:15.896Z,56.07
2019-02-21T22:32:45.321Z,51.37
2019-02-21T22:35:14.901Z,51.07
2019-02-21T22:37:44.302Z,50.80
2019-02-21T22:40:14.189Z,49.30
2019-02-21T22:42:43.625Z,52.70
2019-02-21T22:45:13.571Z,50.97
2019-02-21T22:47:42.885Z,50.80
2019-02-21T22:50:13.984Z,52.13
2019-02-21T22:52:43.326Z,50.23
2019-02-21T22:55:12.708Z,52.87
2019-02-21T22:57:42.108Z,56.00
2019-02-21T23:00:48.297Z,53.87
2019-02-21T23:03:17.767Z,55.10
2019-02-21T23:06:28.653Z,54.00
2019-02-21T23:08:58.035Z,54.37
2019-02-21T23:11:27.385Z,51.23
2019-02-21T23:13:57.092Z,53.50
2019-02-21T23:16:26.424Z,52.50
2019-02-21T23:18:55.839Z,51.27
2019-02-21T23:21:25.162Z,49.90
2019-02-21T23:23:54.533Z,49.13
2019-02-21T23:34:42.949Z,50.97
2019-02-21T23:37:12.369Z,52.57
2019-02-21T23:39:41.700Z,53.10
2019-02-21T23:42:11.102Z,49.83
2019-02-21T23:44:40.423Z,49.17
2019-02-21T23:47:09.855Z,49.67
2019-02-21T23:49:39.451Z,50.27
2019-02-21T23:52:08.840Z,50.07
